createdAt,value
2023-02-20T00:02:15.408Z,98084.94
2023-02-20T00:04:42.111Z,98084.59
2023-02-20T00:07:08.819Z,98087.34
2023-02-20T00:09:35.431Z,98091.66
2023-02-20T00:12:02.071Z,98106.09
2023-02-20T00:14:28.727Z,98104.63
2023-02-20T00:16:55.376Z,98102.00
2023-02-20T00:19:21.999Z,98108.41
2023-02-20T00:21:48.668Z,98099.50
2023-02-20T00:24:15.337Z,98113.78
2023-02-20T00:26:41.994Z,98103.63
2023-02-20T00:29:08.688Z,98110.03
2023-02-20T00:31:35.386Z,98118.41
2023-02-20T00:34:02.056Z,98112.81
2023-02-20T00:36:28.737Z,98115.25
2023-02-20T00:38:55.433Z,98120.50
2023-02-20T00:41:22.144Z,98122.00
2023-02-20T00:43:48.758Z,98122.31
2023-02-20T00:46:15.983Z,98127.72
2023-02-20T00:48:42.869Z,98127.72
2023-02-20T00:51:09.528Z,98128.72
2023-02-20T00:53:36.211Z,98138.59
2023-02-20T00:56:02.909Z,98148.59
2023-02-20T00:58:29.554Z,98136.78
2023-02-20T01:00:56.233Z,98138.09
2023-02-20T01:03:22.846Z,98135.94
2023-02-20T01:05:49.641Z,98128.81
2023-02-20T01:08:16.423Z,98126.25
2023-02-20T01:10:43.128Z,98131.72
2023-02-20T01:13:09.815Z,98133.81
2023-02-20T01:15:36.527Z,98145.81
2023-02-20T01:18:03.253Z,98146.63
2023-02-20T01:20:29.917Z,98144.81
2023-02-20T01:22:56.592Z,98143.69
2023-02-20T01:25:23.265Z,98148.63
2023-02-20T01:27:49.912Z,98146.16
2023-02-20T01:30:16.559Z,98153.38
2023-02-20T01:32:43.235Z,98159.28
2023-02-20T01:35:09.954Z,98160.78
2023-02-20T01:37:36.588Z,98153.22
2023-02-20T01:40:03.296Z,98156.00
2023-02-20T01:42:30.085Z,98157.97
2023-02-20T01:44:57.041Z,98172.28
2023-02-20T01:47:23.663Z,98167.34
2023-02-20T01:49:50.327Z,98161.91
2023-02-20T01:52:17.006Z,98167.19
2023-02-20T01:54:43.634Z,98169.16
2023-02-20T01:57:10.237Z,98163.06
2023-02-20T01:59:36.916Z,98162.22
2023-02-20T02:02:03.609Z,98165.06
2023-02-20T02:04:30.283Z,98165.34
2023-02-20T02:06:56.908Z,98162.88
2023-02-20T02:09:23.567Z,98166.84
2023-02-20T02:11:50.221Z,98175.06
2023-02-20T02:14:16.885Z,98171.94
2023-02-20T02:16:43.544Z,98168.78
2023-02-20T02:19:10.172Z,98180.31
2023-02-20T02:21:36.775Z,98183.63
2023-02-20T02:24:03.421Z,98188.34
2023-02-20T02:26:30.078Z,98190.84
2023-02-20T02:28:56.754Z,98181.59
2023-02-20T02:31:23.572Z,98172.34
2023-02-20T02:33:50.296Z,98168.84
2023-02-20T02:36:16.949Z,98181.38
2023-02-20T02:38:43.622Z,98175.53
2023-02-20T02:41:10.222Z,98174.91
2023-02-20T02:43:36.854Z,98173.56
2023-02-20T02:46:03.573Z,98186.72
2023-02-20T02:48:30.282Z,98186.22
2023-02-20T02:50:57.003Z,98194.53
2023-02-20T02:53:23.659Z,98192.09
2023-02-20T02:55:50.365Z,98194.00
2023-02-20T02:58:17.148Z,98196.88
2023-02-20T03:00:43.841Z,98199.88
2023-02-20T03:03:10.560Z,98196.31
2023-02-20T03:05:37.249Z,98199.41
2023-02-20T03:08:03.892Z,98196.47
2023-02-20T03:10:30.587Z,98200.28
2023-02-20T03:12:57.204Z,98197.00
2023-02-20T03:15:23.882Z,98207.41
2023-02-20T03:17:50.493Z,98208.41
2023-02-20T03:20:17.187Z,98190.75
2023-02-20T03:22:43.826Z,98191.41
2023-02-20T03:25:10.478Z,98198.13
2023-02-20T03:27:37.137Z,98206.72
2023-02-20T03:30:03.757Z,98217.94
2023-02-20T03:32:30.397Z,98242.09
2023-02-20T03:34:57.056Z,98225.13
2023-02-20T03:37:23.692Z,98226.72
2023-02-20T03:39:50.314Z,98218.16
2023-02-20T03:42:16.987Z,98227.91
2023-02-20T03:44:43.649Z,98231.53
2023-02-20T03:47:10.312Z,98238.63
2023-02-20T03:49:36.923Z,98229.19
2023-02-20T03:52:03.557Z,98224.09
2023-02-20T03:54:30.205Z,98232.81
2023-02-20T03:56:56.815Z,98227.22
2023-02-20T03:59:23.485Z,98235.13
2023-02-20T04:01:50.179Z,98242.22
2023-02-20T04:04:16.882Z,98246.81
2023-02-20T04:06:43.506Z,98238.97
2023-02-20T04:09:10.186Z,98251.25
2023-02-20T04:11:36.849Z,98241.88
2023-02-20T04:14:03.740Z,98249.97
2023-02-20T04:16:30.403Z,98250.63
2023-02-20T04:18:57.140Z,98265.56
2023-02-20T04:21:23.794Z,98270.03
2023-02-20T04:23:50.428Z,98262.50
2023-02-20T04:26:17.072Z,98260.50
2023-02-20T04:28:43.762Z,98256.06
2023-02-20T04:31:10.496Z,98264.41
2023-02-20T04:33:37.202Z,98271.34
2023-02-20T04:36:03.824Z,98271.00
2023-02-20T04:38:30.536Z,98269.06
2023-02-20T04:40:57.134Z,98270.88
2023-02-20T04:43:23.806Z,98268.03
2023-02-20T04:45:50.566Z,98269.69
2023-02-20T04:48:17.189Z,98261.31
2023-02-20T04:50:43.867Z,98272.16
2023-02-20T04:53:10.505Z,98272.84
2023-02-20T04:55:37.185Z,98274.97
2023-02-20T04:58:03.847Z,98275.78
2023-02-20T05:00:30.496Z,98272.50
2023-02-20T05:02:57.234Z,98262.97
2023-02-20T05:05:23.931Z,98264.78
2023-02-20T05:07:50.562Z,98269.38
2023-02-20T05:10:17.199Z,98270.72
2023-02-20T05:12:43.855Z,98273.66
2023-02-20T05:15:10.507Z,98268.75
2023-02-20T05:17:37.131Z,98262.81
2023-02-20T05:20:03.758Z,98255.28
2023-02-20T05:22:30.438Z,98242.28
2023-02-20T05:24:57.050Z,98245.41
2023-02-20T05:27:23.743Z,98242.78
2023-02-20T05:29:50.385Z,98250.00
2023-02-20T05:32:17.110Z,98255.88
2023-02-20T05:34:43.780Z,98257.22
2023-02-20T05:37:10.459Z,98260.53
2023-02-20T05:39:37.075Z,98255.59
2023-02-20T05:42:03.749Z,98258.84
2023-02-20T05:44:30.375Z,98263.28
2023-02-20T05:46:57.043Z,98252.25
2023-02-20T05:49:23.698Z,98261.44
2023-02-20T05:51:50.377Z,98261.59
2023-02-20T05:54:17.081Z,98260.47
2023-02-20T05:56:43.900Z,98274.44
2023-02-20T05:59:10.559Z,98273.91
2023-02-20T06:01:37.202Z,98279.00
2023-02-20T06:04:03.925Z,98278.84
2023-02-20T06:06:30.707Z,98276.22
2023-02-20T06:08:57.407Z,98285.06
2023-02-20T06:11:24.127Z,98271.97
2023-02-20T06:13:50.800Z,98281.97
2023-02-20T06:16:17.413Z,98278.53
2023-02-20T06:18:44.041Z,98281.16
2023-02-20T06:21:10.715Z,98274.88
2023-02-20T06:23:37.386Z,98278.53
2023-02-20T06:26:04.005Z,98275.25
2023-02-20T06:28:30.629Z,98280.19
2023-02-20T06:30:57.257Z,98277.56
2023-02-20T06:33:23.904Z,98287.06
2023-02-20T06:35:50.579Z,98280.19
2023-02-20T06:38:17.217Z,98287.06
2023-02-20T06:40:43.885Z,98291.03
2023-02-20T06:43:10.555Z,98291.19
2023-02-20T06:45:37.219Z,98301.72
2023-02-20T06:48:03.872Z,98305.50
2023-02-20T06:50:30.509Z,98311.88
2023-02-20T06:52:57.191Z,98316.50
2023-02-20T06:55:23.828Z,98320.06
2023-02-20T06:57:50.461Z,98319.78
2023-02-20T07:00:18.227Z,98315.56
2023-02-20T07:02:44.893Z,98321.31
2023-02-20T07:05:11.608Z,98315.75
2023-02-20T07:07:38.244Z,98310.31
2023-02-20T07:10:04.916Z,98305.56
2023-02-20T07:12:32.359Z,98307.84
2023-02-20T07:14:59.203Z,98302.06
2023-02-20T07:17:25.934Z,98301.91
2023-02-20T07:19:53.318Z,98296.31
2023-02-20T07:22:19.923Z,98297.00
2023-02-20T07:24:46.761Z,98303.72
2023-02-20T07:27:13.433Z,98304.53
2023-02-20T07:29:40.140Z,98306.19
2023-02-20T07:32:06.783Z,98308.59
2023-02-20T07:34:33.454Z,98293.59
2023-02-20T07:37:00.111Z,98296.75
2023-02-20T07:39:26.753Z,98299.84
2023-02-20T07:41:53.453Z,98294.22
2023-02-20T07:44:20.192Z,98288.34
2023-02-20T07:46:46.866Z,98285.38
2023-02-20T07:49:13.576Z,98283.94
2023-02-20T07:51:40.209Z,98284.69
2023-02-20T07:54:06.852Z,98273.66
2023-02-20T07:56:33.552Z,98275.59
2023-02-20T07:59:01.018Z,98280.53
2023-02-20T08:01:27.807Z,98279.19
2023-02-20T08:03:54.477Z,98260.47
2023-02-20T08:06:21.097Z,98265.81
2023-02-20T08:08:47.723Z,98265.34
2023-02-20T08:11:14.351Z,98260.97
2023-02-20T08:13:40.977Z,98252.34
2023-02-20T08:16:07.701Z,98253.53
2023-02-20T08:18:34.487Z,98255.25
2023-02-20T08:21:01.662Z,98248.97
2023-02-20T08:23:28.546Z,98248.44
2023-02-20T08:25:55.323Z,98251.56
2023-02-20T08:28:22.387Z,98241.06
2023-02-20T08:30:49.640Z,98237.75
2023-02-20T08:33:16.367Z,98239.22
2023-02-20T08:35:43.371Z,98237.94
2023-02-20T08:38:10.336Z,98229.59
2023-02-20T08:40:37.182Z,98214.66
2023-02-20T08:43:04.232Z,98214.53
2023-02-20T08:45:31.110Z,98225.34
2023-02-20T08:47:58.025Z,98227.63
2023-02-20T08:50:24.873Z,98216.00
2023-02-20T08:52:51.979Z,98201.25
2023-02-20T08:55:19.263Z,98205.53
2023-02-20T08:57:46.013Z,98196.97
2023-02-20T09:00:13.021Z,98193.88
2023-02-20T09:02:39.716Z,98193.25
2023-02-20T09:05:06.449Z,98184.41
2023-02-20T09:07:33.119Z,98188.94
2023-02-20T09:09:59.739Z,98180.97
2023-02-20T09:12:26.844Z,98182.63
2023-02-20T09:14:53.580Z,98178.41
2023-02-20T09:17:20.275Z,98178.34
2023-02-20T09:19:46.980Z,98175.66
2023-02-20T09:22:13.803Z,98178.66
2023-02-20T09:24:40.481Z,98174.06
2023-02-20T09:27:07.264Z,98175.09
2023-02-20T09:29:33.972Z,98170.31
2023-02-20T09:32:00.770Z,98168.25
2023-02-20T09:34:27.957Z,98160.50
2023-02-20T09:36:55.608Z,98158.63
2023-02-20T09:39:22.684Z,98159.28
2023-02-20T09:41:49.479Z,98154.25
2023-02-20T09:44:16.148Z,98154.50
2023-02-20T09:46:42.836Z,98159.44
2023-02-20T09:49:09.941Z,98144.81
2023-02-20T09:51:36.688Z,98138.38
2023-02-20T09:54:03.399Z,98140.00
2023-02-20T09:56:30.131Z,98143.47
2023-02-20T09:58:56.890Z,98130.19
2023-02-20T10:01:23.633Z,98129.25
2023-02-20T10:03:50.353Z,98121.97
2023-02-20T10:06:17.068Z,98122.38
2023-02-20T10:08:43.965Z,98117.53
2023-02-20T10:11:11.068Z,98121.31
2023-02-20T10:13:37.748Z,98122.75
2023-02-20T10:16:04.567Z,98115.81
2023-02-20T10:18:31.298Z,98111.56
2023-02-20T10:20:58.064Z,98117.88
2023-02-20T10:23:24.739Z,98112.78
2023-02-20T10:25:51.369Z,98106.81
2023-02-20T10:28:18.069Z,98114.22
2023-02-20T10:30:44.801Z,98110.66
2023-02-20T10:33:11.534Z,98109.50
2023-02-20T10:35:38.145Z,98116.59
2023-02-20T10:38:04.798Z,98118.97
2023-02-20T10:40:31.481Z,98121.91
2023-02-20T10:42:58.168Z,98118.47
2023-02-20T10:45:24.846Z,98103.53
2023-02-20T10:47:51.498Z,98101.97
2023-02-20T10:50:18.103Z,98103.91
2023-02-20T10:52:44.815Z,98101.44
2023-02-20T10:55:11.504Z,98084.84
2023-02-20T10:57:38.169Z,98084.19
2023-02-20T11:00:04.867Z,98080.16
2023-02-20T11:02:31.496Z,98079.69
2023-02-20T11:04:58.154Z,98079.50
2023-02-20T11:07:24.788Z,98073.34
2023-02-20T11:09:51.403Z,98064.97
2023-02-20T11:12:18.030Z,98069.09
2023-02-20T11:17:28.748Z,98050.25
2023-02-20T11:19:55.495Z,98048.09
2023-02-20T11:22:22.206Z,98029.47
2023-02-20T11:24:48.868Z,98030.97
2023-02-20T11:27:15.571Z,98029.72
2023-02-20T11:29:42.262Z,98027.53
2023-02-20T11:32:08.976Z,98016.84
2023-02-20T11:34:35.604Z,98011.34
2023-02-20T11:37:02.272Z,98005.69
2023-02-20T11:39:28.944Z,98001.66
2023-02-20T11:41:55.625Z,97980.19
2023-02-20T11:44:22.285Z,97982.09
2023-02-20T11:46:48.962Z,97967.13
2023-02-20T11:49:15.605Z,97975.09
2023-02-20T11:51:42.254Z,97966.72
2023-02-20T11:54:08.956Z,97965.84
2023-02-20T11:56:35.608Z,97970.47
2023-02-20T11:59:02.226Z,97954.78
2023-02-20T12:01:28.861Z,97945.59
2023-02-20T12:03:55.543Z,97941.59
2023-02-20T12:06:22.226Z,97937.13
2023-02-20T12:08:48.913Z,97929.34
2023-02-20T12:11:15.587Z,97922.16
2023-02-20T12:13:42.249Z,97927.28
2023-02-20T12:16:08.890Z,97929.03
2023-02-20T12:18:37.553Z,97921.56
2023-02-20T12:21:04.209Z,97905.25
2023-02-20T12:23:30.818Z,97906.94
2023-02-20T12:25:57.442Z,97909.72
2023-02-20T12:28:24.109Z,97891.69
2023-02-20T12:30:50.734Z,97882.88
2023-02-20T12:33:17.408Z,97890.16
2023-02-20T12:35:44.099Z,97888.75
2023-02-20T12:38:10.816Z,97892.66
2023-02-20T12:40:37.519Z,97876.47
2023-02-20T12:43:04.156Z,97869.88
2023-02-20T12:45:30.911Z,97865.44
2023-02-20T12:47:57.509Z,97856.97
2023-02-20T12:50:24.179Z,97856.91
2023-02-20T12:52:50.815Z,97850.75
2023-02-20T12:55:19.229Z,97855.38
2023-02-20T12:57:46.034Z,97850.91
2023-02-20T13:00:12.704Z,97853.84
2023-02-20T13:02:42.668Z,97859.13
2023-02-20T13:05:09.791Z,97849.19
2023-02-20T13:07:36.491Z,97848.09
2023-02-20T13:10:03.191Z,97844.44
2023-02-20T13:12:29.850Z,97855.78
2023-02-20T13:14:56.525Z,97854.34
2023-02-20T13:17:23.183Z,97863.72
2023-02-20T13:19:49.875Z,97857.38
2023-02-20T13:22:16.497Z,97850.81
2023-02-20T13:24:43.144Z,97840.75
2023-02-20T13:27:09.804Z,97839.84
2023-02-20T13:29:36.485Z,97827.22
2023-02-20T13:32:03.305Z,97833.47
2023-02-20T13:34:30.185Z,97825.34
2023-02-20T13:36:56.842Z,97823.78
2023-02-20T13:39:23.458Z,97814.75
2023-02-20T13:41:50.189Z,97813.53
2023-02-20T13:44:16.803Z,97802.59
2023-02-20T13:46:43.399Z,97793.38
2023-02-20T13:49:10.089Z,97795.25
2023-02-20T13:51:36.777Z,97795.41
2023-02-20T13:54:03.458Z,97788.47
2023-02-20T13:56:30.086Z,97782.28
2023-02-20T13:58:56.732Z,97783.81
2023-02-20T14:01:23.414Z,97773.84
2023-02-20T14:03:50.216Z,97777.13
2023-02-20T14:06:16.893Z,97776.69
2023-02-20T14:08:43.532Z,97762.72
2023-02-20T14:11:10.192Z,97762.88
2023-02-20T14:13:40.469Z,97762.53
2023-02-20T14:16:07.849Z,97757.59
2023-02-20T14:18:34.564Z,97758.56
2023-02-20T14:21:01.297Z,97759.84
2023-02-20T14:23:28.169Z,97752.03
2023-02-20T14:26:00.210Z,97755.06
2023-02-20T14:28:27.554Z,97749.50
2023-02-20T14:30:54.243Z,97758.31
2023-02-20T14:33:20.945Z,97743.53
2023-02-20T14:35:47.643Z,97744.88
2023-02-20T14:38:14.514Z,97749.91
2023-02-20T14:40:41.157Z,97741.72
2023-02-20T14:43:08.025Z,97739.06
2023-02-20T14:45:34.760Z,97732.50
2023-02-20T14:48:01.497Z,97732.28
2023-02-20T14:50:28.504Z,97731.66
2023-02-20T14:52:55.266Z,97724.44
2023-02-20T14:55:21.909Z,97720.00
2023-02-20T14:57:48.765Z,97724.53
2023-02-20T15:00:15.466Z,97715.69
2023-02-20T15:02:42.250Z,97725.31
2023-02-20T15:05:08.932Z,97722.66
2023-02-20T15:07:35.673Z,97718.56
2023-02-20T15:10:02.357Z,97719.25
2023-02-20T15:12:29.220Z,97718.66
2023-02-20T15:14:55.856Z,97722.16
2023-02-20T15:17:22.516Z,97721.81
2023-02-20T15:19:49.225Z,97719.22
2023-02-20T15:22:15.937Z,97718.78
2023-02-20T15:24:42.673Z,97713.09
2023-02-20T15:27:09.378Z,97710.25
2023-02-20T15:29:36.090Z,97708.84
2023-02-20T15:32:02.868Z,97706.28
2023-02-20T15:34:29.538Z,97699.66
2023-02-20T15:36:56.251Z,97694.69
2023-02-20T15:39:22.959Z,97699.22
2023-02-20T15:41:49.918Z,97704.78
2023-02-20T15:44:16.582Z,97699.44
2023-02-20T15:46:43.349Z,97699.53
2023-02-20T15:49:19.308Z,97695.94
2023-02-20T15:51:47.979Z,97692.78
2023-02-20T15:54:14.663Z,97699.97
2023-02-20T15:56:41.406Z,97695.78
2023-02-20T15:59:08.245Z,97688.69
2023-02-20T16:01:34.961Z,97681.25
2023-02-20T16:04:01.649Z,97680.09
2023-02-20T16:06:28.387Z,97681.44
2023-02-20T16:08:55.104Z,97674.22
2023-02-20T16:11:21.878Z,97668.56
2023-02-20T16:13:48.542Z,97676.50
2023-02-20T16:16:23.864Z,97674.69
2023-02-20T16:18:51.826Z,97668.94
2023-02-20T16:21:18.757Z,97673.09
2023-02-20T16:23:45.448Z,97672.06
2023-02-20T16:26:12.500Z,97674.41
2023-02-20T16:28:39.367Z,97669.41
2023-02-20T16:31:06.010Z,97681.69
2023-02-20T16:33:32.791Z,97679.47
2023-02-20T16:35:59.449Z,97679.78
2023-02-20T16:38:26.988Z,97671.00
2023-02-20T16:40:53.718Z,97680.91
2023-02-20T16:43:20.361Z,97676.19
2023-02-20T16:45:47.011Z,97678.19
2023-02-20T16:48:13.661Z,97683.09
2023-02-20T16:50:40.295Z,97687.19
2023-02-20T16:53:06.925Z,97686.63
2023-02-20T16:55:33.593Z,97686.06
2023-02-20T16:58:00.400Z,97684.81
2023-02-20T17:00:27.060Z,97695.03
2023-02-20T17:02:53.728Z,97698.09
2023-02-20T17:05:20.540Z,97688.91
2023-02-20T17:07:47.232Z,97691.22
2023-02-20T17:10:13.900Z,97692.63
2023-02-20T17:12:40.514Z,97691.63
2023-02-20T17:15:07.166Z,97689.56
2023-02-20T17:17:33.765Z,97696.31
2023-02-20T17:20:00.406Z,97699.41
2023-02-20T17:22:27.071Z,97702.47
2023-02-20T17:24:53.693Z,97696.38
2023-02-20T17:27:20.365Z,97709.00
2023-02-20T17:29:47.111Z,97696.78
2023-02-20T17:32:13.815Z,97697.75
2023-02-20T17:34:40.548Z,97697.13
2023-02-20T17:37:07.171Z,97694.50
2023-02-20T17:39:33.882Z,97702.09
2023-02-20T17:42:00.539Z,97695.53
2023-02-20T17:44:27.245Z,97703.69
2023-02-20T17:46:53.950Z,97697.53
2023-02-20T17:49:20.694Z,97697.53
2023-02-20T17:51:47.377Z,97689.41
2023-02-20T17:54:13.972Z,97704.56
2023-02-20T17:56:40.647Z,97697.44
2023-02-20T17:59:07.316Z,97692.38
2023-02-20T18:01:34.036Z,97692.84
2023-02-20T18:04:00.718Z,97699.34
2023-02-20T18:06:27.374Z,97693.63
2023-02-20T18:08:54.024Z,97692.50
2023-02-20T18:11:20.666Z,97700.78
2023-02-20T18:13:47.357Z,97692.19
2023-02-20T18:16:14.512Z,97685.72
2023-02-20T18:18:41.425Z,97687.97
2023-02-20T18:21:08.131Z,97680.09
2023-02-20T18:23:34.764Z,97682.84
2023-02-20T18:26:01.421Z,97674.38
2023-02-20T18:28:28.111Z,97662.78
2023-02-20T18:30:54.759Z,97660.81
2023-02-20T18:33:21.419Z,97664.38
2023-02-20T18:35:55.505Z,97655.28
2023-02-20T18:38:32.730Z,97661.41
2023-02-20T18:40:59.421Z,97661.31
2023-02-20T18:43:26.060Z,97648.16
2023-02-20T18:45:52.914Z,97649.09
2023-02-20T18:48:19.576Z,97643.88
2023-02-20T18:50:47.337Z,97647.50
2023-02-20T18:53:13.940Z,97641.63
2023-02-20T18:55:40.626Z,97632.03
2023-02-20T18:58:07.273Z,97617.16
2023-02-20T19:00:34.010Z,97621.50
2023-02-20T19:03:01.264Z,97619.50
2023-02-20T19:05:27.964Z,97615.84
2023-02-20T19:07:54.615Z,97616.28
2023-02-20T19:10:21.265Z,97628.63
2023-02-20T19:12:47.947Z,97625.53
2023-02-20T19:15:14.598Z,97617.22
2023-02-20T19:17:41.314Z,97616.00
2023-02-20T19:20:07.942Z,97604.19
2023-02-20T19:22:34.616Z,97601.31
2023-02-20T19:25:01.326Z,97580.22
2023-02-20T19:27:28.025Z,97555.91
2023-02-20T19:29:54.859Z,97548.41
2023-02-20T19:32:21.618Z,97542.94
2023-02-20T19:34:48.604Z,97558.50
2023-02-20T19:37:15.245Z,97561.69
2023-02-20T19:39:41.973Z,97572.53
2023-02-20T19:42:08.635Z,97570.66
2023-02-20T19:44:35.308Z,97576.06
2023-02-20T19:47:01.925Z,97577.94
2023-02-20T19:49:28.576Z,97578.44
2023-02-20T19:51:55.223Z,97581.00
2023-02-20T19:54:21.834Z,97592.47
2023-02-20T19:56:48.454Z,97574.47
2023-02-20T19:59:15.118Z,97598.97
2023-02-20T20:01:41.784Z,97597.72
2023-02-20T20:04:08.416Z,97581.72
2023-02-20T20:06:35.084Z,97578.50
2023-02-20T20:09:13.527Z,97584.44
2023-02-20T20:11:41.725Z,97578.03
2023-02-20T20:14:08.365Z,97593.38
2023-02-20T20:16:36.945Z,97578.78
2023-02-20T20:19:03.653Z,97567.59
2023-02-20T20:21:32.601Z,97584.38
2023-02-20T20:23:59.276Z,97581.81
2023-02-20T20:26:25.985Z,97588.63
2023-02-20T20:28:52.688Z,97585.38
2023-02-20T20:31:19.393Z,97597.56
2023-02-20T20:33:46.079Z,97607.34
2023-02-20T20:36:12.758Z,97593.09
2023-02-20T20:38:39.391Z,97582.94
2023-02-20T20:41:06.010Z,97595.69
2023-02-20T20:43:32.639Z,97595.56
2023-02-20T20:45:59.343Z,97587.69
2023-02-20T20:48:25.953Z,97594.66
2023-02-20T20:50:52.653Z,97596.09
2023-02-20T20:53:19.280Z,97606.25
2023-02-20T20:55:45.922Z,97597.63
2023-02-20T20:58:12.524Z,97601.28
2023-02-20T21:00:39.162Z,97607.66
2023-02-20T21:03:05.868Z,97614.41
2023-02-20T21:05:32.550Z,97604.22
2023-02-20T21:07:59.143Z,97602.06
2023-02-20T21:10:25.766Z,97607.06
2023-02-20T21:12:52.467Z,97611.66
2023-02-20T21:15:19.077Z,97611.72
2023-02-20T21:17:45.738Z,97616.47
2023-02-20T21:20:12.417Z,97626.75
2023-02-20T21:22:39.058Z,97618.53
2023-02-20T21:25:05.749Z,97613.94
2023-02-20T21:27:32.484Z,97619.31
2023-02-20T21:29:59.159Z,97619.47
2023-02-20T21:32:25.847Z,97612.13
2023-02-20T21:34:52.490Z,97621.69
2023-02-20T21:37:19.110Z,97624.94
2023-02-20T21:39:45.777Z,97600.47
2023-02-20T21:42:12.442Z,97622.75
2023-02-20T21:44:39.115Z,97610.34
2023-02-20T21:47:05.784Z,97591.53
2023-02-20T21:49:32.448Z,97607.63
2023-02-20T21:51:59.106Z,97614.97
2023-02-20T21:54:25.822Z,97587.25
2023-02-20T21:56:52.441Z,97602.78
2023-02-20T21:59:19.113Z,97605.59
2023-02-20T22:01:45.737Z,97594.22
2023-02-20T22:04:12.433Z,97584.97
2023-02-20T22:06:39.132Z,97597.25
2023-02-20T22:09:05.772Z,97591.28
2023-02-20T22:11:32.400Z,97589.88
2023-02-20T22:13:59.094Z,97583.59
2023-02-20T22:16:25.787Z,97567.47
2023-02-20T22:18:52.434Z,97586.56
2023-02-20T22:21:19.097Z,97556.06
2023-02-20T22:23:45.755Z,97565.78
2023-02-20T22:26:12.394Z,97583.31
2023-02-20T22:28:38.998Z,97564.13
2023-02-20T22:31:05.788Z,97566.34
2023-02-20T22:33:32.594Z,97569.56
2023-02-20T22:35:59.265Z,97569.38
2023-02-20T22:38:25.955Z,97570.38
2023-02-20T22:40:52.655Z,97553.41
2023-02-20T22:43:19.294Z,97577.72
2023-02-20T22:45:45.950Z,97553.66
2023-02-20T22:48:12.588Z,97557.78
2023-02-20T22:50:39.259Z,97562.09
2023-02-20T22:53:05.928Z,97569.31
2023-02-20T22:55:32.615Z,97545.56
2023-02-20T22:57:59.286Z,97573.72
2023-02-20T23:00:26.059Z,97553.91
2023-02-20T23:02:52.712Z,97561.63
2023-02-20T23:05:19.354Z,97559.31
2023-02-20T23:07:46.008Z,97564.72
2023-02-20T23:10:12.660Z,97556.72
2023-02-20T23:12:39.302Z,97559.16
2023-02-20T23:15:05.975Z,97557.50
2023-02-20T23:17:36.928Z,97562.28
2023-02-20T23:20:04.235Z,97554.94
2023-02-20T23:22:30.892Z,97550.66
2023-02-20T23:24:57.587Z,97563.56
2023-02-20T23:27:24.220Z,97558.97
2023-02-20T23:29:50.852Z,97559.66
2023-02-20T23:32:17.609Z,97558.03
2023-02-20T23:34:44.357Z,97546.72
2023-02-20T23:37:10.960Z,97547.97
2023-02-20T23:39:37.631Z,97549.63
2023-02-20T23:42:04.328Z,97545.75
2023-02-20T23:44:30.989Z,97540.84
2023-02-20T23:46:57.680Z,97531.00
2023-02-20T23:49:24.321Z,97548.31
2023-02-20T23:51:50.997Z,97536.69
2023-02-20T23:54:17.596Z,97533.63
2023-02-20T23:56:44.287Z,97522.88
2023-02-20T23:59:10.893Z,97530.69
